createdAt,value
2023-02-11T00:00:39.882Z,74.44
2023-02-11T00:03:42.428Z,74.64
2023-02-11T00:06:45.010Z,75.30
2023-02-11T00:09:47.595Z,75.13
2023-02-11T00:12:50.116Z,74.98
2023-02-11T00:15:53.633Z,75.37
2023-02-11T00:18:56.152Z,74.80
2023-02-11T00:21:58.849Z,74.61
2023-02-11T00:25:01.532Z,74.52
2023-02-11T00:28:04.342Z,74.75
2023-02-11T00:31:07.107Z,75.16
2023-02-11T00:34:10.526Z,75.33
2023-02-11T00:37:14.237Z,75.19
2023-02-11T00:40:17.777Z,75.45
2023-02-11T00:43:20.551Z,75.22
2023-02-11T00:46:23.778Z,75.44
2023-02-11T00:49:26.318Z,75.13
2023-02-11T00:52:30.078Z,75.49
2023-02-11T00:55:32.594Z,75.40
2023-02-11T00:58:35.647Z,75.31
2023-02-11T01:01:38.557Z,75.18
2023-02-11T01:04:41.203Z,75.53
2023-02-11T01:07:43.710Z,75.34
2023-02-11T01:11:03.782Z,75.22
2023-02-11T01:14:06.218Z,75.63
2023-02-11T01:17:08.757Z,74.95
2023-02-11T01:20:17.059Z,75.26
2023-02-11T01:23:19.591Z,75.65
2023-02-11T01:26:22.036Z,75.89
2023-02-11T01:29:26.062Z,76.63
2023-02-11T01:32:31.280Z,76.34
2023-02-11T01:35:33.682Z,76.15
2023-02-11T01:38:36.449Z,76.39
2023-02-11T01:41:39.176Z,76.19
2023-02-11T01:44:42.032Z,76.79
2023-02-11T01:47:44.718Z,76.52
2023-02-11T01:50:50.847Z,76.71
2023-02-11T01:54:14.100Z,76.27
2023-02-11T01:57:23.417Z,76.40
2023-02-11T02:00:38.879Z,76.55
2023-02-11T02:03:45.520Z,76.36
2023-02-11T02:06:56.190Z,76.43
2023-02-11T02:10:04.705Z,75.99
2023-02-11T02:13:07.319Z,75.52
2023-02-11T02:16:19.734Z,75.86
2023-02-11T02:19:40.758Z,76.18
2023-02-11T02:23:01.709Z,76.03
2023-02-11T02:26:04.069Z,76.33
2023-02-11T02:29:34.861Z,76.96
2023-02-11T02:32:49.489Z,76.15
2023-02-11T02:36:01.131Z,76.32
2023-02-11T02:39:09.529Z,76.46
2023-02-11T02:42:13.104Z,76.44
2023-02-11T02:45:16.583Z,76.82
2023-02-11T02:48:28.342Z,76.87
2023-02-11T02:51:45.954Z,76.67
2023-02-11T02:55:20.678Z,76.60
2023-02-11T02:58:32.240Z,76.63
2023-02-11T03:01:50.246Z,77.00
2023-02-11T03:05:04.692Z,76.70
2023-02-11T03:08:13.509Z,76.84
2023-02-11T03:11:19.180Z,76.20
2023-02-11T03:14:23.638Z,76.58
2023-02-11T03:17:28.651Z,76.68
2023-02-11T03:20:36.630Z,76.65
2023-02-11T03:24:01.067Z,76.28
2023-02-11T03:27:29.184Z,77.00
2023-02-11T03:31:03.434Z,77.30
2023-02-11T03:34:14.516Z,77.62
2023-02-11T03:37:37.099Z,77.69
2023-02-11T03:40:42.429Z,77.10
2023-02-11T03:43:48.576Z,77.19
2023-02-11T03:46:54.058Z,76.71
2023-02-11T03:49:59.453Z,77.40
2023-02-11T03:53:03.599Z,77.41
2023-02-11T03:56:11.575Z,77.50
2023-02-11T03:59:13.957Z,77.75
2023-02-11T04:02:16.853Z,77.40
2023-02-11T04:05:19.491Z,77.53
2023-02-11T04:08:22.175Z,77.12
2023-02-11T04:11:24.718Z,77.53
2023-02-11T04:14:27.143Z,77.96
2023-02-11T04:17:29.566Z,78.30
2023-02-11T04:20:32.101Z,78.11
2023-02-11T04:23:34.552Z,78.11
2023-02-11T04:26:37.027Z,77.67
2023-02-11T04:29:39.527Z,78.01
2023-02-11T04:32:41.956Z,77.96
2023-02-11T04:35:44.409Z,78.29
2023-02-11T04:38:46.855Z,77.74
2023-02-11T04:41:49.627Z,77.76
2023-02-11T04:44:52.300Z,78.00
2023-02-11T04:47:54.712Z,78.12
2023-02-11T04:50:57.435Z,77.37
2023-02-11T04:53:59.932Z,77.83
2023-02-11T04:57:02.701Z,77.66
2023-02-11T05:00:06.028Z,78.10
2023-02-11T05:03:08.466Z,77.67
2023-02-11T05:06:11.527Z,77.86
2023-02-11T05:09:14.664Z,77.77
2023-02-11T05:12:18.272Z,78.30
2023-02-11T05:15:20.693Z,77.49
2023-02-11T05:18:24.124Z,78.29
2023-02-11T05:21:26.660Z,78.17
2023-02-11T05:24:29.127Z,78.31
2023-02-11T05:27:31.563Z,77.95
2023-02-11T05:30:34.424Z,77.92
2023-02-11T05:33:36.884Z,78.39
2023-02-11T05:36:39.315Z,78.51
2023-02-11T05:39:41.852Z,78.55
2023-02-11T05:42:44.294Z,77.99
2023-02-11T05:45:46.730Z,77.20
2023-02-11T05:48:49.125Z,78.01
2023-02-11T05:51:51.576Z,77.90
2023-02-11T05:54:54.009Z,78.07
2023-02-11T05:57:56.524Z,78.39
2023-02-11T06:00:59.068Z,77.99
2023-02-11T06:04:01.557Z,78.03
2023-02-11T06:07:04.402Z,77.74
2023-02-11T06:10:07.610Z,78.37
2023-02-11T06:13:10.264Z,76.78
2023-02-11T06:16:12.710Z,77.10
2023-02-11T06:19:15.104Z,77.17
2023-02-11T06:22:17.759Z,76.33
2023-02-11T06:25:20.319Z,76.28
2023-02-11T06:28:22.906Z,75.85
2023-02-11T06:31:26.159Z,76.29
2023-02-11T06:34:28.723Z,76.13
2023-02-11T06:37:31.442Z,75.83
2023-02-11T06:40:33.986Z,75.48
2023-02-11T06:43:36.447Z,75.71
2023-02-11T06:46:39.016Z,74.92
2023-02-11T06:49:41.863Z,75.06
2023-02-11T06:52:44.946Z,75.37
2023-02-11T06:55:47.495Z,74.58
2023-02-11T06:58:55.673Z,73.80
2023-02-11T07:02:00.359Z,74.03
2023-02-11T07:05:06.882Z,73.96
2023-02-11T07:08:10.115Z,73.83
2023-02-11T07:11:24.339Z,73.11
2023-02-11T07:14:27.196Z,72.75
2023-02-11T07:17:29.686Z,72.28
2023-02-11T07:20:32.210Z,71.32
2023-02-11T07:23:35.614Z,69.65
2023-02-11T07:26:38.552Z,69.16
2023-02-11T07:29:42.776Z,69.21
2023-02-11T07:32:46.762Z,69.69
2023-02-11T07:35:49.515Z,69.23
2023-02-11T07:38:52.679Z,68.60
2023-02-11T07:41:55.496Z,68.01
2023-02-11T07:44:59.058Z,67.93
2023-02-11T07:48:01.682Z,67.31
2023-02-11T07:51:12.465Z,66.72
2023-02-11T07:54:16.457Z,66.82
2023-02-11T07:57:18.951Z,65.86
2023-02-11T08:00:22.407Z,64.85
2023-02-11T08:03:24.893Z,64.83
2023-02-11T08:06:31.249Z,65.74
2023-02-11T08:09:34.655Z,65.84
2023-02-11T08:12:37.193Z,65.46
2023-02-11T08:15:39.694Z,65.87
2023-02-11T08:18:42.637Z,67.16
2023-02-11T08:21:46.140Z,66.91
2023-02-11T08:24:51.333Z,66.71
2023-02-11T08:27:54.750Z,66.89
2023-02-11T08:30:58.065Z,66.46
2023-02-11T08:34:02.478Z,66.00
2023-02-11T08:37:09.284Z,65.79
2023-02-11T08:40:11.917Z,64.38
2023-02-11T08:43:14.595Z,63.47
2023-02-11T08:46:19.867Z,63.65
2023-02-11T08:49:22.871Z,62.89
2023-02-11T08:52:25.614Z,61.85
2023-02-11T08:55:28.579Z,61.02
2023-02-11T08:58:31.098Z,60.19
2023-02-11T09:01:33.972Z,59.65
2023-02-11T09:04:36.472Z,58.65
2023-02-11T09:07:39.016Z,57.96
2023-02-11T09:10:41.451Z,57.03
2023-02-11T09:13:45.080Z,56.73
2023-02-11T09:16:48.532Z,55.20
2023-02-11T09:19:51.256Z,54.38
2023-02-11T09:22:55.203Z,54.71
2023-02-11T09:25:57.997Z,53.81
2023-02-11T09:29:01.542Z,54.03
2023-02-11T09:32:04.511Z,52.70
2023-02-11T09:35:07.528Z,51.33
2023-02-11T09:38:10.017Z,51.67
2023-02-11T09:41:46.825Z,50.85
2023-02-11T09:44:49.896Z,50.92
2023-02-11T09:48:00.547Z,51.00
2023-02-11T09:51:04.409Z,49.90
2023-02-11T09:54:23.675Z,49.66
2023-02-11T09:57:34.284Z,48.65
2023-02-11T10:00:44.498Z,49.07
2023-02-11T10:04:24.809Z,49.12
2023-02-11T10:07:42.383Z,48.79
2023-02-11T10:10:56.899Z,49.32
2023-02-11T10:14:21.575Z,48.44
2023-02-11T10:17:33.028Z,45.86
2023-02-11T10:20:46.080Z,44.60
2023-02-11T10:23:54.008Z,45.04
2023-02-11T10:26:56.512Z,43.59
2023-02-11T10:30:16.136Z,44.27
2023-02-11T10:33:43.637Z,45.05
2023-02-11T10:36:46.076Z,44.50
2023-02-11T10:39:49.818Z,41.29
2023-02-11T10:42:55.974Z,39.18
2023-02-11T10:46:00.461Z,41.37
2023-02-11T10:49:04.151Z,43.50
2023-02-11T10:52:24.278Z,45.73
2023-02-11T10:55:28.718Z,44.76
2023-02-11T10:58:37.598Z,44.39
2023-02-11T11:02:04.566Z,43.64
2023-02-11T11:05:19.944Z,43.75
2023-02-11T11:08:22.469Z,44.27
2023-02-11T11:11:26.416Z,43.70
2023-02-11T11:14:29.713Z,39.82
2023-02-11T11:17:32.216Z,32.48
2023-02-11T11:20:36.393Z,26.86
2023-02-11T11:23:39.839Z,22.72
2023-02-11T11:26:45.365Z,24.63
2023-02-11T11:29:55.625Z,29.83
2023-02-11T11:32:59.332Z,32.96
2023-02-11T11:36:07.851Z,34.80
2023-02-11T11:39:33.733Z,36.78
2023-02-11T11:42:38.852Z,37.97
2023-02-11T11:45:59.364Z,37.41
2023-02-11T11:49:13.420Z,37.22
2023-02-11T11:52:26.716Z,37.02
2023-02-11T11:55:36.445Z,36.81
2023-02-11T11:58:38.875Z,37.61
2023-02-11T12:02:02.295Z,38.74
2023-02-11T12:05:24.532Z,38.58
2023-02-11T12:09:12.788Z,37.62
2023-02-11T12:12:33.567Z,37.19
2023-02-11T12:15:56.152Z,36.49
2023-02-11T12:19:20.650Z,34.96
2023-02-11T12:22:37.181Z,35.24
2023-02-11T12:25:48.071Z,36.91
2023-02-11T12:29:02.119Z,36.36
2023-02-11T12:32:08.281Z,34.77
2023-02-11T12:35:28.447Z,34.20
2023-02-11T12:39:22.996Z,33.78
2023-02-11T12:43:03.474Z,32.26
2023-02-11T12:46:48.280Z,29.17
2023-02-11T12:50:04.632Z,27.01
2023-02-11T12:53:19.637Z,23.64
2023-02-11T12:56:31.708Z,22.66
2023-02-11T13:00:11.746Z,25.64
2023-02-11T13:03:47.337Z,23.70
2023-02-11T13:07:02.671Z,23.53
2023-02-11T13:10:15.564Z,26.37
2023-02-11T13:13:23.770Z,29.35
2023-02-11T13:16:33.046Z,30.72
2023-02-11T13:19:47.277Z,30.69
2023-02-11T13:23:17.306Z,31.56
2023-02-11T13:26:26.319Z,32.47
2023-02-11T13:29:49.189Z,33.28
2023-02-11T13:32:54.787Z,34.20
2023-02-11T13:35:57.375Z,34.57
2023-02-11T13:39:03.533Z,35.21
2023-02-11T13:42:06.116Z,35.52
2023-02-11T13:45:37.597Z,35.23
2023-02-11T13:48:47.512Z,34.90
2023-02-11T13:51:51.938Z,35.19
2023-02-11T13:54:59.350Z,34.38
2023-02-11T13:58:07.785Z,33.96
2023-02-11T14:01:10.371Z,31.64
2023-02-11T14:04:47.977Z,28.16
2023-02-11T14:08:28.188Z,26.44
2023-02-11T14:11:45.026Z,24.19
2023-02-11T14:15:04.835Z,23.93
2023-02-11T14:18:37.215Z,22.62
2023-02-11T14:21:43.203Z,24.32
2023-02-11T14:24:49.908Z,26.41
2023-02-11T14:27:56.707Z,28.61
2023-02-11T14:31:07.630Z,29.46
2023-02-11T14:34:29.895Z,30.62
2023-02-11T14:38:21.806Z,31.36
2023-02-11T14:41:27.165Z,32.13
2023-02-11T14:44:32.367Z,32.42
2023-02-11T14:47:53.888Z,33.08
2023-02-11T14:51:18.849Z,31.94
2023-02-11T14:54:26.557Z,30.33
2023-02-11T14:57:29.794Z,27.85
2023-02-11T15:00:32.362Z,28.49
2023-02-11T15:03:38.917Z,29.23
2023-02-11T15:06:45.377Z,31.66
2023-02-11T15:09:54.042Z,34.10
2023-02-11T15:12:57.923Z,35.56
2023-02-11T15:16:11.188Z,35.93
2023-02-11T15:19:41.363Z,36.83
2023-02-11T15:22:46.302Z,37.52
2023-02-11T15:25:55.658Z,37.54
2023-02-11T15:28:59.414Z,38.10
2023-02-11T15:32:07.254Z,38.64
2023-02-11T15:35:11.974Z,39.25
2023-02-11T15:38:14.677Z,39.72
2023-02-11T15:41:49.461Z,40.36
2023-02-11T15:45:14.811Z,41.08
2023-02-11T15:48:26.979Z,41.31
2023-02-11T15:51:36.344Z,41.72
2023-02-11T15:54:47.165Z,42.00
2023-02-11T15:57:55.173Z,42.28
2023-02-11T16:01:00.029Z,42.71
2023-02-11T16:04:06.268Z,43.05
2023-02-11T16:07:38.961Z,43.12
2023-02-11T16:11:08.859Z,43.27
2023-02-11T16:14:32.618Z,43.73
2023-02-11T16:17:35.998Z,44.40
2023-02-11T16:20:39.017Z,44.71
2023-02-11T16:23:44.959Z,45.04
2023-02-11T16:26:53.511Z,45.31
2023-02-11T16:29:58.144Z,45.42
2023-02-11T16:33:02.142Z,45.20
2023-02-11T16:36:17.259Z,45.36
2023-02-11T16:39:24.629Z,45.61
2023-02-11T16:42:27.473Z,46.16
2023-02-11T16:45:30.139Z,46.54
2023-02-11T16:48:33.567Z,46.64
2023-02-11T16:51:39.983Z,46.60
2023-02-11T16:54:42.819Z,46.55
2023-02-11T16:57:45.576Z,46.42
2023-02-11T17:00:48.851Z,46.45
2023-02-11T17:03:51.822Z,46.08
2023-02-11T17:06:56.595Z,45.84
2023-02-11T17:10:01.202Z,45.73
2023-02-11T17:13:05.195Z,46.02
2023-02-11T17:16:16.027Z,46.39
2023-02-11T17:19:23.745Z,46.27
2023-02-11T17:22:26.516Z,46.69
2023-02-11T17:25:29.778Z,46.40
2023-02-11T17:28:32.885Z,46.30
2023-02-11T17:31:37.813Z,46.25
2023-02-11T17:34:40.969Z,46.54
2023-02-11T17:37:43.591Z,46.67
2023-02-11T17:40:46.341Z,46.74
2023-02-11T17:43:48.826Z,47.24
2023-02-11T17:46:51.520Z,47.58
2023-02-11T17:49:54.674Z,47.53
2023-02-11T17:52:57.793Z,47.60
2023-02-11T17:56:06.317Z,46.87
2023-02-11T17:59:11.247Z,47.55
2023-02-11T18:02:14.347Z,46.43
2023-02-11T18:05:17.139Z,46.09
2023-02-11T18:08:19.846Z,46.92
2023-02-11T18:11:24.097Z,46.95
2023-02-11T18:14:26.787Z,47.08
2023-02-11T18:17:29.432Z,47.07
2023-02-11T18:20:33.291Z,46.90
2023-02-11T18:23:36.104Z,46.72
2023-02-11T18:26:39.097Z,47.22
2023-02-11T18:29:41.819Z,47.56
2023-02-11T18:32:44.954Z,48.06
2023-02-11T18:35:49.250Z,47.50
2023-02-11T18:38:53.710Z,47.34
2023-02-11T18:41:58.801Z,46.99
2023-02-11T18:45:01.200Z,46.95
2023-02-11T18:48:05.797Z,47.52
2023-02-11T18:51:10.449Z,47.47
2023-02-11T18:54:13.516Z,47.82
2023-02-11T18:57:16.156Z,47.87
2023-02-11T19:00:20.777Z,47.90
2023-02-11T19:03:23.497Z,48.38
2023-02-11T19:06:28.993Z,48.36
2023-02-11T19:09:31.960Z,48.69
2023-02-11T19:12:35.071Z,48.69
2023-02-11T19:15:46.638Z,48.71
2023-02-11T19:18:50.015Z,48.62
2023-02-11T19:21:52.881Z,48.71
2023-02-11T19:24:55.340Z,48.55
2023-02-11T19:27:58.043Z,48.83
2023-02-11T19:31:10.024Z,48.85
2023-02-11T19:34:19.928Z,48.53
2023-02-11T19:37:22.412Z,48.75
2023-02-11T19:40:25.256Z,49.42
2023-02-11T19:43:28.614Z,49.62
2023-02-11T19:46:34.865Z,49.90
2023-02-11T19:49:37.543Z,49.44
2023-02-11T19:52:40.817Z,49.36
2023-02-11T19:55:43.712Z,49.55
2023-02-11T19:58:46.454Z,49.76
2023-02-11T20:01:49.998Z,50.27
2023-02-11T20:04:53.004Z,49.96
2023-02-11T20:07:55.557Z,50.23
2023-02-11T20:11:05.397Z,51.11
2023-02-11T20:14:08.665Z,51.19
2023-02-11T20:17:11.411Z,51.90
2023-02-11T20:20:14.202Z,52.86
2023-02-11T20:23:16.886Z,53.85
2023-02-11T20:26:22.743Z,54.65
2023-02-11T20:29:25.923Z,55.81
2023-02-11T20:32:31.145Z,56.42
2023-02-11T20:35:35.345Z,56.49
2023-02-11T20:38:38.242Z,56.97
2023-02-11T20:41:41.069Z,57.61
2023-02-11T20:44:45.335Z,57.75
2023-02-11T20:47:47.800Z,58.93
2023-02-11T20:50:50.746Z,59.35
2023-02-11T20:53:54.339Z,59.42
2023-02-11T20:56:58.208Z,59.68
2023-02-11T21:00:00.688Z,59.83
2023-02-11T21:03:04.287Z,60.28
2023-02-11T21:06:08.101Z,60.10
2023-02-11T21:09:17.720Z,60.52
2023-02-11T21:12:20.694Z,60.58
2023-02-11T21:15:24.138Z,60.83
2023-02-11T21:18:27.145Z,60.89
2023-02-11T21:21:30.829Z,61.21
2023-02-11T21:24:33.563Z,61.61
2023-02-11T21:27:36.363Z,61.76
2023-02-11T21:30:40.008Z,61.99
2023-02-11T21:33:42.740Z,61.99
2023-02-11T21:36:45.579Z,62.27
2023-02-11T21:39:48.293Z,62.89
2023-02-11T21:42:51.332Z,63.35
2023-02-11T21:45:54.156Z,64.27
2023-02-11T21:48:57.879Z,64.77
2023-02-11T21:52:00.654Z,65.17
2023-02-11T21:55:03.666Z,65.58
2023-02-11T21:58:07.866Z,66.24
2023-02-11T22:01:15.467Z,66.52
2023-02-11T22:04:18.191Z,66.68
2023-02-11T22:07:22.714Z,67.15
2023-02-11T22:10:25.395Z,67.38
2023-02-11T22:13:28.056Z,67.32
2023-02-11T22:16:31.251Z,67.43
2023-02-11T22:19:34.316Z,67.64
2023-02-11T22:22:37.102Z,68.13
2023-02-11T22:25:39.568Z,68.24
2023-02-11T22:28:42.863Z,68.52
2023-02-11T22:31:45.384Z,69.03
2023-02-11T22:34:47.866Z,69.24
2023-02-11T22:37:50.312Z,69.69
2023-02-11T22:40:52.939Z,70.10
2023-02-11T22:43:55.530Z,69.69
2023-02-11T22:46:58.131Z,69.81
2023-02-11T22:50:00.712Z,70.02
2023-02-11T22:53:03.135Z,70.06
2023-02-11T22:56:10.575Z,69.76
2023-02-11T22:59:15.397Z,70.30
2023-02-11T23:02:17.953Z,70.47
2023-02-11T23:05:20.492Z,70.48
2023-02-11T23:08:22.988Z,70.83
2023-02-11T23:11:28.662Z,70.70
2023-02-11T23:14:31.342Z,71.36
2023-02-11T23:17:33.925Z,70.69
2023-02-11T23:20:42.437Z,70.68
2023-02-11T23:23:45.862Z,70.92
2023-02-11T23:26:49.157Z,71.17
2023-02-11T23:29:51.770Z,70.96
2023-02-11T23:32:54.414Z,71.59
2023-02-11T23:35:57.004Z,71.64
2023-02-11T23:39:00.041Z,72.00
2023-02-11T23:42:02.676Z,72.24
2023-02-11T23:45:05.723Z,72.62
2023-02-11T23:48:08.146Z,72.71
2023-02-11T23:51:10.857Z,73.00
2023-02-11T23:54:15.161Z,73.25
2023-02-11T23:57:17.922Z,73.57
